Terminal Aerodrome Forecast
Issued by NWS Charleston, WV

Current Version | Previous Version | Text Only | Print | Product List | Glossary Off
Versions: 1 2 3 4 5 6 7 8 9 10 11 12 13 14 15 16 17 18 19 20 21 22 23 24 25 26 27 28 29 30 31 32 33 34

000
FTUS41 KRLX 212300 RRA
TAFEKN
TAF
KEKN 212348Z 2200/2224 30004KT 6SM -SHRA BR SCT015 OVC025
      TEMPO 2200/2204 2SM -SHRA BR SCT008 BKN015
     FM220400 30004KT 6SM -SHRA BR OVC012
      TEMPO 2204/2208 2SM -SHRA BR SCT004 BKN008
     FM221400 32005KT P6SM OVC010
     FM221600 31006KT P6SM OVC015=

USA.gov is the U.S. government's official web portal to all federal, state and local government web resources and services.